• Join FlightAware (Why Join?)
  • Login
  • US Flag 
11:03AM EDT


 

Airport Tracker/Info


-or-


 

Live Flight TrackerFlight Track Log ✈ FLG3432 ✈ 18-May-2013 ✈ KALB - KMSP

Flight Track Log - Related Links

Times and Time Zones

All times are in EDT time to prevent confusion due to time zone crossing. See the FLG3432 flight status page for this flight to view local times or setup timezone preferences in your user account.

Time Position Orientation Groundspeed Altitude Reporting Facility
EDT Latitude Longitude Course Direction KTS MPH feet Rate Location/Type
06:30AM 42.7736 -73.8092 223° Southwest 149 171 1,300  Level Boston Center
06:31AM 42.8125 -73.8525 321° Northwest 227 261 3,000 1,860 Climbing Boston Center
06:32AM 42.7334 -74.2300 270° West  Level FlightAware Approximate
06:32AM 42.7919 -73.9992 259° West 277 319 6,300  Level Boston Center
06:33AM 42.6980 -74.3544 220° Southwest  Level FlightAware Approximate
06:33AM 42.7761 -74.0919 257° West 277 319 9,300  Level Boston Center
06:34AM 42.6168 -74.4457 220° Southwest  Level FlightAware Approximate
06:34AM 42.7703 -74.2022 266° West 266 306 11,400  Level Boston Center
06:35AM 42.5379 -74.5402 223° Southwest  Level FlightAware Approximate
06:35AM 42.7789 -74.3042 277° West 290 334 12,800  Level Boston Center
06:36AM 42.7892 -74.4403 276° West 321 369 14,900 1,980 Climbing Boston Center
06:37AM 42.7978 -74.5511 276° West 333 383 16,800 1,680 Climbing Boston Center
06:38AM 42.8094 -74.6903 277° West 333 383 18,300 1,740 Climbing Boston Center
06:39AM 42.8217 -74.8181 277° West 338 389 20,300 1,740 Climbing Boston Center
06:40AM 42.8333 -74.9486 277° West 343 395 21,800 1,500 Climbing Boston Center
06:41AM 42.8428 -75.0822 276° West 349 402 23,300 1,260 Climbing Boston Center
06:42AM 42.8522 -75.2156 276° West 354 407 24,400 1,140 Climbing Boston Center
06:43AM 42.8633 -75.3522 276° West 359 413 25,600 1,380 Climbing Boston Center
06:44AM 42.8742 -75.4917 276° West 371 427 27,200 1,320 Climbing Boston Center
06:45AM 42.8850 -75.6311 276° West 371 427 28,300 1,260 Climbing Boston Center
06:46AM 42.8958 -75.7675 276° West 371 427 29,800 1,140 Climbing Boston Center
06:48AM 42.9044 -75.8986 275° West 366 421 30,900 960 Climbing Boston Center
06:49AM 42.9167 -76.1500 274° West 360 414 32,900 1,080 Climbing Toronto Center
06:50AM 42.9292 -76.2500 280° West 364 419 33,500 660 Climbing Cleveland Center
06:51AM 42.9361 -76.3800 274° West 364 419 34,000 240 Climbing Cleveland Center
06:52AM 42.9453 -76.5211 275° West 364 419 34,000  Level Cleveland Center
06:53AM 42.9567 -76.6653 276° West 369 425 34,000  Level Cleveland Center
06:54AM 42.9650 -76.7953 275° West 382 440 34,000  Level Cleveland Center
06:55AM 42.9739 -76.9422 275° West 389 448 34,000  Level Cleveland Center
06:56AM 42.9828 -77.0894 275° West 389 448 34,000  Level Cleveland Center
06:57AM 42.9933 -77.2336 276° West 389 448 34,000  Level Cleveland Center
06:58AM 43.0017 -77.3836 274° West 389 448 34,000  Level Cleveland Center
06:59AM 43.0097 -77.5281 274° West 389 448 34,000  Level Cleveland Center
07:00AM 43.0178 -77.6753 274° West 389 448 34,000  Level Cleveland Center
07:01AM 43.0253 -77.8200 274° West 384 442 34,000  Level Cleveland Center
07:02AM 43.0350 -77.9700 275° West 384 442 34,000  Level Cleveland Center
07:03AM 43.0425 -78.1147 274° West 384 442 34,000  Level Cleveland Center
07:04AM 43.0497 -78.2619 274° West 384 442 34,000  Level Cleveland Center
07:05AM 43.0567 -78.4125 274° West 389 448 34,000  Level Cleveland Center
07:06AM 43.0636 -78.5628 274° West 389 448 34,000  Level Cleveland Center
07:07AM 43.0703 -78.7133 274° West 394 453 34,000  Level Cleveland Center
07:08AM 43.0789 -78.8636 275° West 399 459 34,000  Level Cleveland Center
07:08AM 43.0667 -78.9333 257° West 400 460 34,000  Level Toronto Center
07:09AM 43.0833 -79.0833 279° West 400 460 34,000  Level Toronto Center
07:10AM 43.0833 -79.2167 270° West 400 460 34,000  Level Toronto Center
07:11AM 43.1000 -79.3833 278° West 400 460 34,000  Level Toronto Center
07:12AM 43.1000 -79.5500 270° West 400 460 34,000  Level Toronto Center
07:13AM 43.1000 -79.7000 270° West 400 460 34,000  Level Toronto Center
07:14AM 43.1167 -79.8333 280° West 410 472 34,000  Level Toronto Center
07:15AM 43.1167 -80.0000 270° West 410 472 34,000  Level Toronto Center
07:16AM 43.1167 -80.1667 270° West 410 472 34,000  Level Toronto Center
07:17AM 43.1333 -80.3167 279° West 410 472 34,000  Level Toronto Center
07:18AM 43.1333 -80.4500 270° West 410 472 34,000  Level Toronto Center
07:20AM 43.1333 -80.6167 270° West 410 472 34,000  Level Toronto Center
07:21AM 43.1500 -80.7833 278° West 410 472 34,000  Level Toronto Center
07:22AM 43.1333 -80.9333 261° West 410 472 34,000  Level Toronto Center
07:23AM 43.1333 -81.1000 270° West 410 472 34,000  Level Toronto Center
07:24AM 43.1500 -81.2500 279° West 420 483 34,000  Level Toronto Center
07:25AM 43.1500 -81.4167 270° West 420 483 34,000  Level Toronto Center
07:26AM 43.1667 -81.5833 278° West 420 483 34,000  Level Toronto Center
07:27AM 43.1667 -81.7333 270° West 420 483 34,000  Level Toronto Center
07:28AM 43.1667 -81.9000 270° West 420 483 34,000  Level Toronto Center
07:29AM 43.1667 -82.0500 270° West 420 483 34,000  Level Toronto Center
07:30AM 43.1667 -82.2167 270° West 420 483 34,000  Level Toronto Center
07:31AM 43.1667 -82.3833 270° West 420 483 34,000  Level Toronto Center
07:32AM 43.1833 -82.5333 279° West 420 483 34,000  Level Toronto Center
07:33AM 43.1667 -82.7000 262° West 430 495 34,000  Level Toronto Center
07:34AM 43.1667 -82.8500 270° West 430 495 34,000  Level Toronto Center
07:35AM 43.1833 -83.0167 278° West 430 495 34,000  Level Toronto Center
07:36AM 43.1833 -83.2000 270° West 430 495 34,000  Level Toronto Center
07:37AM 43.1833 -83.3667 270° West 430 495 34,000  Level Toronto Center
07:38AM 43.1833 -83.5167 270° West 430 495 34,000  Level Toronto Center
07:39AM 43.1936 -83.6958 275° West 437 503 34,000  Level Cleveland Center
07:40AM 43.1953 -83.8611 271° West 437 503 34,000  Level Cleveland Center
07:41AM 43.1944 -84.0292 270° West 442 509 34,000  Level Cleveland Center
07:42AM 43.1833 -84.3500 267° West 440 506 34,000  Level Toronto Center
07:44AM 43.1833 -84.5000 270° West 440 506 34,000  Level Toronto Center
07:44AM 43.1833 -84.6833 270° West 440 506 34,000  Level Toronto Center
07:45AM 43.1833 -84.8500 270° West 440 506 34,000  Level Toronto Center
07:46AM 43.1933 -84.8883 290° West 439 505 34,000  Level Chicago Center
07:47AM 43.1922 -85.0558 270° West 440 506 34,000  Level Chicago Center
07:48AM 43.2150 -85.2153 281° West 434 499 34,000  Level Chicago Center
07:49AM 43.2475 -85.3728 286° West 432 497 34,000  Level Chicago Center
07:50AM 43.2800 -85.5306 286° West 435 501 34,000  Level Chicago Center
07:51AM 43.3117 -85.6878 286° West 434 499 34,000  Level Chicago Center
07:52AM 43.3492 -85.8769 285° West 435 501 34,000  Level Chicago Center
07:53AM 43.3803 -86.0333 285° West 430 495 34,000  Level Chicago Center
07:54AM 43.4117 -86.1922 285° West 436 502 34,000  Level Chicago Center
07:55AM 43.4428 -86.3519 285° West 437 503 34,000  Level Chicago Center
07:56AM 43.4725 -86.5136 284° West 436 502 34,000  Level Minneapolis Center
07:57AM 43.5036 -86.6736 285° West 435 501 34,000  Level Minneapolis Center
07:58AM 43.5342 -86.8350 285° West 436 502 34,000  Level Minneapolis Center
07:59AM 43.5644 -86.9933 285° West 431 496 34,000  Level Minneapolis Center
08:00AM 43.5947 -87.1558 284° West 437 503 34,000  Level Minneapolis Center
08:01AM 43.6231 -87.3169 284° West 433 498 34,000  Level Minneapolis Center
08:02AM 43.6528 -87.4803 284° West 436 502 34,000  Level Minneapolis Center
08:03AM 43.6817 -87.6411 284° West 432 497 34,000  Level Minneapolis Center
08:04AM 43.7200 -87.8564 284° West 433 498 34,000  Level Minneapolis Center
08:05AM 43.7500 -88.0189 284° West 437 503 34,000  Level Minneapolis Center
08:06AM 43.7792 -88.1819 284° West 439 505 34,000  Level Minneapolis Center
08:07AM 43.8083 -88.3456 284° West 440 506 34,000  Level Minneapolis Center
08:08AM 43.8372 -88.5103 284° West 442 509 34,000  Level Minneapolis Center
08:09AM 43.8658 -88.6758 284° West 443 510 34,000  Level Chicago Center
08:10AM 43.8939 -88.8403 283° West 442 509 34,000  Level Chicago Center
08:11AM 43.9219 -89.0067 283° West 444 511 34,000  Level Minneapolis Center
08:12AM 43.9472 -89.1731 282° West 444 511 34,000  Level Minneapolis Center
08:13AM 43.9800 -89.3669 283° West 443 510 34,000  Level Minneapolis Center
08:14AM 44.0072 -89.5364 283° West 447 514 34,000  Level Minneapolis Center
08:15AM 44.0331 -89.7017 282° West 442 509 34,000  Level Minneapolis Center
08:16AM 44.0594 -89.8672 283° West 440 506 34,000  Level Minneapolis Center
08:17AM 44.1078 -90.0206 294° West 436 502 34,000  Level Minneapolis Center
08:19AM 44.1825 -90.1531 308° West 434 499 34,000 -300 Level Minneapolis Center
08:20AM 44.2856 -90.2661 322° Northwest 404 465 33,400 -1,020 Descending Minneapolis Center
08:21AM 44.3717 -90.3086 341° North 392 451 32,000 -1,680 Descending Minneapolis Center
08:22AM 44.4872 -90.3653 341° North 378 435 30,100 -1,500 Descending Minneapolis Center
08:23AM 44.5867 -90.4131 341° North 377 434 29,000 -1,380 Descending Minneapolis Center
08:24AM 44.6506 -90.5367 306° West 358 412 27,300 -1,680 Descending Minneapolis Center
08:25AM 44.6858 -90.6656 291° West 354 407 25,700 -1,440 Descending Minneapolis Center
08:26AM 44.7181 -90.7922 290° West 348 400 24,400 -840 Descending Minneapolis Center
08:27AM 44.7486 -90.9153 289° West 338 389 24,000 -240 Descending Minneapolis Center
08:28AM 44.7672 -91.0558 281° West 358 412 24,000  Level Minneapolis Center
08:29AM 44.7864 -91.1986 281° West 368 423 24,000 -540 Level Minneapolis Center
08:30AM 44.8044 -91.3350 281° West 364 419 23,000 -1,320 Descending Minneapolis Center
08:31AM 44.8225 -91.4675 281° West 356 410 21,400 -1,620 Descending Minneapolis Center
08:32AM 44.8411 -91.5997 281° West 350 403 19,800 -1,620 Descending Minneapolis Center
08:33AM 44.8594 -91.7336 281° West 349 402 18,200 -1,680 Descending Minneapolis Center
08:34AM 44.8794 -91.8889 280° West 340 391 16,400 -1,680 Descending Minneapolis Center
08:35AM 44.8956 -92.0147 280° West 329 379 14,800 -1,680 Descending Minneapolis Center
08:36AM 44.9106 -92.1319 280° West 307 353 13,100 -1,680 Descending Minneapolis Center
08:37AM 44.9250 -92.2447 280° West 291 335 11,400 -1,020 Descending Minneapolis Center
08:38AM 44.9386 -92.3542 280° West 284 327 11,100 -300 Descending Minneapolis Center
08:39AM 44.9519 -92.4667 280° West 292 336 10,800 -1,020 Descending Minneapolis Center
08:40AM 44.9661 -92.5781 280° West 291 335 9,100 -840 Descending Minneapolis Center
08:41AM 44.9800 -92.6869 280° West 285 328 9,100  Level Minneapolis Center
08:42AM 44.9689 -92.7939 262° West 276 318 9,100 -300 Level Minneapolis Center
08:43AM 44.9486 -92.9222 257° West 282 325 8,600 -600 Descending Minneapolis Center
08:44AM 44.9319 -93.0244 257° West 269 310 8,000 -300 Descending Minneapolis Center
08:45AM 44.9478 -93.1000 287° West 221 254 8,100  Climbing Minneapolis Center
08:46AM 44.9794 -93.1725 302° West 219 252 8,100 -660 Level Minneapolis Center
08:47AM 45.0183 -93.2594 302° West 220 253 6,700 -1,080 Descending Minneapolis Center
08:48AM 45.0497 -93.3294 302° West 213 245 6,000 -420 Descending Minneapolis Center
08:49AM 45.0817 -93.4006 302° West 216 249 5,900 -60 Descending Minneapolis Center
08:50AM 45.1206 -93.4856 303° West 217 250 5,900 -840 Level Minneapolis Center
08:52AM 45.0878 -93.5689 241° Southwest 197 227 4,000 -780 Descending Minneapolis Center
08:53AM 45.0406 -93.5453 161° South 192 221 4,000  Level Minneapolis Center
08:54AM 45.0042 -93.4786 128° Southeast 179 206 4,000 -420 Level Minneapolis Center
08:55AM 44.9786 -93.4192 121° Southeast 178 205 3,200 -540 Descending Minneapolis Center
08:56AM 44.9533 -93.3603 121° Southeast 176 203 3,000 -240 Descending Minneapolis Center